Aviation Digital Data Service (ADDS)

Output produced by TAFs form (1215 UTC 24 February 2018)
found at http://aviationweather.gov/adds/tafs/
 
METAR text: OKBK 241200Z 04006KT 3500 -RA SCT040 OVC080 17/15 Q1009 RERA NOSIG
Conditions at: OKBK (KUWAIT INTL (MIL, KW) observed 1200 UTC 24 February 2018
Temperature: 17.0°C (63°F)
Dewpoint: 15.0°C (59°F) [RH = 88%]
Pressure (altimeter): 29.79 inches Hg (1009.0 mb)
Winds: from the NE (40 degrees) at 7 MPH (6 knots; 3.1 m/s)
Visibility: 2.17 miles (3.49 km)
Ceiling: 8000 feet AGL
Clouds: scattered clouds at 4000 feet AGL
overcast cloud deck at 8000 feet AGL
Weather: -RA  (light rain)

Forecast for: OKBK (KUWAIT INTL (MIL, KW)
Text: TAF OKBK 231045Z 2312/2418 14008G18KT 7000 FEW040 BKN100
Forecast period: 1200 UTC 23 February 2018 to 1800 UTC 24 February 2018
Forecast type: FROM: standard forecast or significant change
Winds: from the SE (140 degrees) at 9 MPH (8 knots; 4.2 m/s)
gusting to 21 MPH (18 knots; 9.4 m/s)
Visibility: 4 miles (7 km)
Ceiling: 10000 feet AGL
Clouds: few clouds at 4000 feet AGL
broken clouds at 10000 feet AGL
Weather: no significant weather forecast for this period
Text: TEMPO 2312/2321 VRB03KT 4000 RA
Forecast period: 1200 to 2100 UTC 23 February 2018
Forecast type: TEMPORARY: The following changes expected for less than half the time period
Winds: variable direction winds at 3 MPH (3 knots; 1.6 m/s)
Visibility: 2.49 miles (4.01 km)
Weather: RA  (rain)